Time;durP1;ratioP1;P1;durP2;ratioP2;P2;SDS_P1;SDS_P2;PMS_P1;PMS_P2;Temp;Humidity;BMP_temperature;BMP_pressure;BME280_temperature;BME280_humidity;BME280_pressure;Samples;Min_cycle;Max_cycle;Signal;HPM_P1;HPM_P2
2021/08/15 00:00:16;;;;;;;8.07;7.27;;;;;;;17.86;70.45;101794.81;4928521;29;20673;-75
2021/08/15 00:02:43;;;;;;;8.33;6.60;;;;;;;17.97;69.97;101791.19;4930619;29;20216;-75
2021/08/15 00:05:10;;;;;;;14.50;7.73;;;;;;;18.04;69.89;101781.03;4928808;29;20764;-75
2021/08/15 00:07:39;;;;;;;8.20;6.67;;;;;;;17.95;70.04;101790.63;4932982;29;21278;-75
2021/08/15 00:10:06;;;;;;;6.73;6.00;;;;;;;18.06;69.30;101783.47;4930620;29;20252;-75
2021/08/15 00:12:33;;;;;;;7.30;6.17;;;;;;;18.24;68.55;101785.88;4931108;29;20243;-76
2021/08/15 00:14:59;;;;;;;9.07;6.47;;;;;;;18.31;68.01;101785.69;4928798;29;20226;-75
2021/08/15 00:17:25;;;;;;;8.33;6.20;;;;;;;18.31;68.17;101783.00;4930671;29;20216;-75
2021/08/15 00:19:52;;;;;;;13.63;6.70;;;;;;;18.51;67.25;101784.03;4931757;29;20235;-75
2021/08/15 00:22:18;;;;;;;10.63;6.97;;;;;;;18.53;67.59;101786.50;4932795;29;20719;-76
2021/08/15 00:24:46;;;;;;;10.23;7.07;;;;;;;18.53;67.84;101786.50;4930765;29;20757;-76
2021/08/15 00:27:13;;;;;;;10.23;7.73;;;;;;;18.40;68.23;101795.81;4931938;29;20850;-75
2021/08/15 00:29:39;;;;;;;10.20;7.27;;;;;;;18.67;67.94;101793.19;4931763;29;20659;-75
2021/08/15 00:32:06;;;;;;;12.33;8.67;;;;;;;18.34;69.11;101790.59;4931710;29;20208;-75
2021/08/15 00:34:33;;;;;;;11.53;8.50;;;;;;;18.30;69.30;101784.06;4930342;29;20896;-76
2021/08/15 00:36:59;;;;;;;12.57;8.93;;;;;;;18.27;69.21;101779.94;4934916;29;20300;-75
2021/08/15 00:39:26;;;;;;;10.27;8.20;;;;;;;17.93;70.36;101793.56;4930725;29;20217;-75
2021/08/15 00:41:53;;;;;;;10.13;8.60;;;;;;;18.29;69.42;101794.03;4932082;29;20611;-76
2021/08/15 00:44:20;;;;;;;12.57;9.53;;;;;;;18.03;70.20;101789.34;4932590;29;20739;-75
2021/08/15 00:46:48;;;;;;;11.47;9.27;;;;;;;17.98;70.54;101775.78;4931381;29;20282;-75
2021/08/15 00:49:15;;;;;;;11.77;8.77;;;;;;;17.61;72.00;101777.09;4931934;29;20232;-76
2021/08/15 00:51:41;;;;;;;14.00;9.57;;;;;;;17.85;71.08;101777.75;4933362;29;20244;-75
2021/08/15 00:54:08;;;;;;;13.13;8.80;;;;;;;17.72;71.64;101778.13;4928739;29;20277;-75
2021/08/15 00:56:34;;;;;;;11.43;8.80;;;;;;;18.27;69.40;101763.72;4929253;28;20250;-76
2021/08/15 00:59:05;;;;;;;9.00;8.03;;;;;;;18.16;69.52;101772.75;4930715;28;20696;-76
2021/08/15 01:01:32;;;;;;;14.30;9.20;;;;;;;18.15;69.44;101773.84;4930889;29;20293;-76
2021/08/15 01:04:02;;;;;;;9.73;7.20;;;;;;;18.02;69.60;101766.91;4931898;29;20237;-75
2021/08/15 01:06:29;;;;;;;10.80;8.30;;;;;;;17.42;72.08;101775.72;4932863;29;20228;-76
2021/08/15 01:08:56;;;;;;;10.10;8.37;;;;;;;17.88;70.50;101765.63;4930882;29;20229;-75
2021/08/15 01:11:22;;;;;;;10.80;7.90;;;;;;;18.03;69.32;101763.13;4929581;29;20237;-75
2021/08/15 01:13:49;;;;;;;8.63;7.37;;;;;;;18.08;68.98;101765.91;4928612;29;20225;-75
2021/08/15 01:16:16;;;;;;;9.93;8.47;;;;;;;17.90;69.73;101758.09;4926737;29;20284;-75
2021/08/15 01:18:44;;;;;;;8.83;7.37;;;;;;;17.71;70.19;101746.75;4927788;28;20237;-75
2021/08/15 01:21:13;;;;;;;9.57;7.83;;;;;;;18.06;68.81;101748.31;4929989;29;20221;-75
2021/08/15 01:23:42;;;;;;;8.43;6.37;;;;;;;17.96;69.26;101751.69;4929726;28;20774;-76
2021/08/15 01:26:09;;;;;;;8.87;7.03;;;;;;;17.91;69.00;101748.91;4930148;29;20223;-75
2021/08/15 01:28:37;;;;;;;10.07;7.13;;;;;;;17.98;68.73;101751.44;4931980;29;20309;-75
2021/08/15 01:31:03;;;;;;;9.63;6.80;;;;;;;18.11;68.33;101751.88;4929705;29;20232;-75
2021/08/15 01:33:32;;;;;;;7.87;6.53;;;;;;;18.07;68.55;101750.75;4930976;29;20220;-76
2021/08/15 01:35:59;;;;;;;11.90;6.90;;;;;;;18.02;68.31;101744.44;4929321;28;20289;-75
2021/08/15 01:38:28;;;;;;;7.73;6.50;;;;;;;17.67;69.40;101737.47;4930951;28;20276;-76
2021/08/15 01:40:55;;;;;;;9.80;6.60;;;;;;;17.68;69.56;101730.19;4928371;29;20250;-76
2021/08/15 01:43:21;;;;;;;8.93;6.67;;;;;;;17.53;69.84;101714.53;4930454;29;20269;-75
2021/08/15 01:45:50;;;;;;;9.93;7.37;;;;;;;17.64;69.57;101710.91;4931669;29;20216;-75
2021/08/15 01:48:17;;;;;;;7.50;6.70;;;;;;;17.75;69.26;101715.44;4929238;29;20251;-76
2021/08/15 01:50:43;;;;;;;9.33;7.40;;;;;;;17.72;69.36;101713.25;4929670;29;20296;-76
2021/08/15 01:53:11;;;;;;;12.50;7.03;;;;;;;17.87;68.72;101709.91;4928282;29;20287;-76
2021/08/15 01:55:39;;;;;;;9.20;6.83;;;;;;;17.86;68.86;101711.00;4928059;29;20221;-75
2021/08/15 01:58:05;;;;;;;11.83;7.73;;;;;;;17.82;68.94;101707.16;4928407;29;20262;-76
2021/08/15 02:00:32;;;;;;;10.27;6.80;;;;;;;18.04;68.21;101704.44;4929201;28;20979;-76
2021/08/15 02:03:00;;;;;;;7.70;6.13;;;;;;;17.71;69.61;101708.09;4929354;29;20220;-75
2021/08/15 02:05:27;;;;;;;9.90;7.00;;;;;;;17.59;69.79;101708.16;4930029;29;20574;-75
2021/08/15 02:07:55;;;;;;;7.43;6.37;;;;;;;17.57;69.99;101704.88;4926729;29;20357;-75
2021/08/15 02:10:23;;;;;;;11.37;7.57;;;;;;;17.21;71.81;101703.53;4928472;29;20312;-75
2021/08/15 02:12:49;;;;;;;9.93;6.77;;;;;;;17.31;71.07;101701.00;4928590;29;20233;-75
2021/08/15 02:15:15;;;;;;;9.73;7.53;;;;;;;17.42;70.73;101697.38;4928043;29;20258;-76
2021/08/15 02:17:42;;;;;;;11.37;7.50;;;;;;;17.34;71.20;101703.19;4928082;29;20276;-76
2021/08/15 02:20:11;;;;;;;10.73;7.50;;;;;;;17.32;71.18;101708.03;4931776;29;20236;-76
2021/08/15 02:22:38;;;;;;;10.37;7.50;;;;;;;17.19;71.78;101694.84;4930314;28;20215;-75
2021/08/15 02:25:06;;;;;;;9.27;6.70;;;;;;;17.77;69.54;101699.78;4929910;29;20224;-75
2021/08/15 02:27:32;;;;;;;11.93;7.33;;;;;;;17.68;70.05;101695.88;4930250;29;20651;-75
2021/08/15 02:29:58;;;;;;;9.33;7.63;;;;;;;17.79;69.49;101692.28;4930534;29;20659;-76
2021/08/15 02:32:25;;;;;;;7.80;6.83;;;;;;;18.07;68.25;101690.44;4928746;29;20632;-76
2021/08/15 02:34:51;;;;;;;9.70;6.87;;;;;;;18.22;67.79;101682.50;4931344;29;20264;-76
2021/08/15 02:37:19;;;;;;;9.20;6.47;;;;;;;18.20;67.77;101682.78;4929644;29;20214;-76
2021/08/15 02:39:45;;;;;;;8.23;6.60;;;;;;;17.86;68.77;101676.66;4933531;29;20227;-75
2021/08/15 02:42:12;;;;;;;8.27;6.50;;;;;;;18.10;68.46;101676.41;4933521;29;20216;-75
2021/08/15 02:44:38;;;;;;;6.87;5.93;;;;;;;17.90;68.74;101672.38;4933333;28;20235;-75
2021/08/15 02:47:04;;;;;;;9.13;7.40;;;;;;;17.96;68.83;101673.28;4932277;29;20230;-76
2021/08/15 02:49:31;;;;;;;8.87;6.53;;;;;;;17.81;69.77;101646.06;4935760;28;20241;-75
2021/08/15 02:51:57;;;;;;;9.13;7.27;;;;;;;17.57;70.57;101653.56;4933643;28;20237;-75
2021/08/15 02:54:25;;;;;;;10.37;7.10;;;;;;;17.20;72.44;101658.69;4931799;29;20725;-75
2021/08/15 02:56:51;;;;;;;9.27;6.83;;;;;;;17.21;72.98;101653.03;4934936;29;20731;-76
2021/08/15 02:59:17;;;;;;;10.17;7.10;;;;;;;17.40;72.19;101652.75;4931447;29;21147;-76
2021/08/15 03:01:44;;;;;;;12.73;7.60;;;;;;;17.34;72.35;101636.47;4931038;29;20666;-75
2021/08/15 03:04:10;;;;;;;9.07;7.93;;;;;;;17.44;72.14;101643.09;4931826;29;20609;-76
2021/08/15 03:06:39;;;;;;;10.40;7.63;;;;;;;17.31;72.76;101645.09;4933073;29;20219;-75
2021/08/15 03:09:05;;;;;;;10.17;8.10;;;;;;;17.11;73.55;101630.44;4933237;29;20214;-75
2021/08/15 03:11:33;;;;;;;10.70;8.03;;;;;;;17.26;72.93;101628.78;4934355;29;20302;-75
2021/08/15 03:14:00;;;;;;;10.07;7.40;;;;;;;17.36;72.47;101618.13;4930740;29;20275;-75
2021/08/15 03:16:26;;;;;;;11.00;8.67;;;;;;;17.33;72.57;101631.31;4932528;29;20246;-75
2021/08/15 03:18:52;;;;;;;10.77;8.20;;;;;;;17.32;72.59;101627.81;4930165;28;20287;-76
2021/08/15 03:21:19;;;;;;;9.93;8.07;;;;;;;17.32;72.95;101625.09;4930761;29;20625;-75
2021/08/15 03:23:45;;;;;;;10.00;8.13;;;;;;;17.35;72.45;101623.78;4931659;29;20277;-75
2021/08/15 03:26:12;;;;;;;8.97;8.03;;;;;;;17.32;72.86;101625.09;4932218;29;20222;-75
2021/08/15 03:28:39;;;;;;;11.17;8.37;;;;;;;17.39;72.42;101619.50;4932328;29;20638;-75
2021/08/15 03:31:06;;;;;;;8.93;7.37;;;;;;;17.23;73.13;101623.06;4932030;29;20307;-75
2021/08/15 03:33:32;;;;;;;14.57;9.07;;;;;;;17.11;73.44;101627.75;4931047;28;20330;-75
2021/08/15 03:35:58;;;;;;;7.97;7.17;;;;;;;17.12;73.35;101635.59;4928133;29;20286;-75
2021/08/15 03:38:25;;;;;;;11.60;7.57;;;;;;;17.23;73.16;101626.59;4930822;29;20267;-75
2021/08/15 03:40:51;;;;;;;10.50;7.90;;;;;;;17.17;73.33;101622.19;4931787;29;20209;-76
2021/08/15 03:43:17;;;;;;;9.53;7.77;;;;;;;17.23;73.10;101617.66;4933383;29;20223;-75
2021/08/15 03:45:45;;;;;;;11.83;7.40;;;;;;;17.26;72.75;101620.69;4932664;29;20281;-75
2021/08/15 03:48:11;;;;;;;9.63;8.40;;;;;;;17.20;73.14;101607.38;4931415;29;20220;-75
2021/08/15 03:50:38;;;;;;;10.60;8.07;;;;;;;17.18;72.90;101607.63;4931226;28;20237;-75
2021/08/15 03:53:04;;;;;;;10.60;7.60;;;;;;;17.26;72.62;101609.88;4930110;29;20249;-75
2021/08/15 03:55:31;;;;;;;9.40;8.33;;;;;;;17.22;73.12;101602.53;4932126;29;20626;-75
2021/08/15 03:57:58;;;;;;;10.57;7.90;;;;;;;17.30;72.58;101608.34;4930320;29;20252;-75
2021/08/15 04:00:24;;;;;;;10.87;8.00;;;;;;;17.20;73.10;101615.47;4929750;29;20219;-75
2021/08/15 04:02:52;;;;;;;15.80;8.63;;;;;;;17.08;73.47;101609.34;4931184;29;20719;-75
2021/08/15 04:05:18;;;;;;;11.07;8.20;;;;;;;17.06;73.55;101612.31;4931444;29;20792;-75
2021/08/15 04:07:45;;;;;;;11.57;7.73;;;;;;;17.25;72.83;101610.94;4932923;29;20551;-76
2021/08/15 04:10:11;;;;;;;9.50;7.87;;;;;;;17.37;72.28;101602.75;4928690;29;20243;-75
2021/08/15 04:12:38;;;;;;;11.13;8.20;;;;;;;17.53;71.83;101603.75;4931356;29;20240;-75
2021/08/15 04:15:05;;;;;;;12.93;8.13;;;;;;;17.33;72.40;101607.03;4931905;29;20272;-76
2021/08/15 04:17:32;;;;;;;11.40;8.27;;;;;;;17.17;73.12;101608.69;4929526;29;20292;-75
2021/08/15 04:19:59;;;;;;;12.13;8.70;;;;;;;17.12;73.58;101605.91;4931460;29;20293;-75
2021/08/15 04:22:26;;;;;;;10.47;7.90;;;;;;;16.98;74.13;101610.00;4928665;29;21166;-75
2021/08/15 04:24:52;;;;;;;11.77;8.37;;;;;;;17.19;73.09;101609.25;4929178;29;20605;-75
2021/08/15 04:27:18;;;;;;;10.77;8.27;;;;;;;17.30;72.80;101610.22;4931731;29;20216;-75
2021/08/15 04:29:45;;;;;;;14.13;8.80;;;;;;;17.44;72.33;101602.56;4928900;29;20228;-75
2021/08/15 04:32:11;;;;;;;10.70;9.60;;;;;;;17.35;72.64;101597.59;4932358;29;20497;-79
2021/08/15 04:34:38;;;;;;;11.70;9.90;;;;;;;17.61;71.63;101592.53;4936959;29;20263;-79
2021/08/15 04:37:05;;;;;;;14.07;8.17;;;;;;;17.78;70.91;101593.28;4935282;29;20218;-79
2021/08/15 04:39:32;;;;;;;14.73;9.27;;;;;;;18.14;69.77;101599.09;4934327;29;20212;-79
2021/08/15 04:41:58;;;;;;;11.33;9.27;;;;;;;18.03;70.05;101600.88;4932974;29;20216;-79
2021/08/15 04:44:25;;;;;;;9.83;8.80;;;;;;;18.22;69.52;101590.53;4932461;28;20277;-79
2021/08/15 04:46:51;;;;;;;9.17;8.00;;;;;;;18.48;68.19;101592.41;4936243;29;20215;-79
2021/08/15 04:49:17;;;;;;;10.17;8.73;;;;;;;18.41;68.45;101591.78;4936856;29;20237;-79
2021/08/15 04:51:44;;;;;;;12.17;8.40;;;;;;;18.56;68.15;101593.03;4936642;28;20691;-79
2021/08/15 04:54:12;;;;;;;12.70;8.33;;;;;;;18.31;69.00;101590.91;4938746;28;20205;-79
2021/08/15 04:56:38;;;;;;;11.83;8.60;;;;;;;18.38;68.83;101588.78;4935746;29;20223;-79
2021/08/15 04:59:04;;;;;;;10.53;8.53;;;;;;;18.32;68.92;101587.13;4934158;29;20254;-79
2021/08/15 05:01:31;;;;;;;10.90;8.97;;;;;;;18.13;69.62;101595.59;4936159;29;20300;-79
2021/08/15 05:03:57;;;;;;;16.20;8.83;;;;;;;18.11;70.14;101584.22;4936791;29;20243;-79
2021/08/15 05:06:24;;;;;;;12.63;9.40;;;;;;;17.92;70.56;101588.34;4937659;29;20238;-79
2021/08/15 05:08:50;;;;;;;12.60;8.60;;;;;;;17.59;71.98;101595.47;4935436;29;20230;-80
2021/08/15 05:11:18;;;;;;;13.57;9.10;;;;;;;17.52;72.48;101596.72;4934114;29;20692;-78
2021/08/15 05:13:45;;;;;;;10.73;9.37;;;;;;;17.77;71.53;101594.38;4935352;29;20221;-79
2021/08/15 05:16:11;;;;;;;12.07;9.50;;;;;;;17.87;71.45;101589.09;4933688;29;20301;-79
2021/08/15 05:18:38;;;;;;;13.17;9.23;;;;;;;18.28;69.42;101578.69;4931848;28;20237;-78
2021/08/15 05:21:04;;;;;;;15.73;9.17;;;;;;;18.32;68.96;101582.53;4927471;28;20217;-78
2021/08/15 05:23:30;;;;;;;10.87;9.03;;;;;;;18.21;69.45;101572.69;4930562;29;20284;-78
2021/08/15 05:25:57;;;;;;;14.43;9.07;;;;;;;18.31;69.32;101571.97;4928082;29;20263;-78
2021/08/15 05:28:25;;;;;;;12.13;8.73;;;;;;;18.27;69.33;101573.53;4930492;29;20214;-79
2021/08/15 05:30:51;;;;;;;10.87;9.13;;;;;;;18.18;69.38;101587.53;4929027;29;20214;-78
2021/08/15 05:33:18;;;;;;;9.70;8.07;;;;;;;18.04;69.81;101577.34;4928874;29;20268;-78
2021/08/15 05:35:44;;;;;;;11.97;8.93;;;;;;;18.02;69.80;101583.03;4931545;29;20271;-78
2021/08/15 05:38:10;;;;;;;12.53;8.60;;;;;;;17.83;70.52;101592.56;4931908;29;20558;-78
2021/08/15 05:40:37;;;;;;;12.10;8.23;;;;;;;17.77;70.95;101588.97;4929387;29;20232;-78
2021/08/15 05:43:03;;;;;;;12.83;8.57;;;;;;;17.97;70.10;101582.16;4930929;28;20550;-78
2021/08/15 05:45:31;;;;;;;11.77;8.33;;;;;;;18.44;68.40;101580.47;4928662;29;20680;-78
2021/08/15 05:47:57;;;;;;;9.67;7.97;;;;;;;18.80;67.03;101583.47;4928192;29;20213;-78
2021/08/15 05:50:24;;;;;;;9.27;7.57;;;;;;;18.67;67.51;101584.75;4928310;29;20633;-78
2021/08/15 05:52:55;;;;;;;14.50;8.40;;;;;;;19.15;66.41;101590.22;4925792;29;20245;-78
2021/08/15 05:55:22;;;;;;;11.77;8.73;;;;;;;19.52;64.95;101592.88;4925599;29;20217;-78
2021/08/15 05:57:49;;;;;;;8.03;7.20;;;;;;;19.64;64.30;101585.38;4926270;29;20305;-78
2021/08/15 06:00:16;;;;;;;12.00;7.53;;;;;;;19.77;64.03;101592.19;4924461;29;20266;-78
2021/08/15 06:02:45;;;;;;;10.47;7.50;;;;;;;20.08;62.95;101591.22;4925719;29;20246;-77
2021/08/15 06:05:12;;;;;;;8.80;7.57;;;;;;;20.37;62.18;101585.28;4926084;29;20262;-77
2021/08/15 06:07:38;;;;;;;11.07;8.03;;;;;;;20.37;62.24;101586.09;4925809;29;20261;-78
2021/08/15 06:10:06;;;;;;;11.43;8.00;;;;;;;20.20;62.82;101580.94;4928692;29;20843;-77
2021/08/15 06:12:32;;;;;;;10.50;7.90;;;;;;;20.38;61.73;101574.16;4930041;29;20787;-77
2021/08/15 06:14:58;;;;;;;9.53;7.70;;;;;;;20.01;63.14;101566.22;4935539;29;20678;-77
2021/08/15 06:17:25;;;;;;;9.20;7.13;;;;;;;20.07;63.09;101561.63;4935827;29;20265;-77
2021/08/15 06:19:53;;;;;;;8.67;6.87;;;;;;;20.57;61.58;101563.59;4929878;29;20278;-78
2021/08/15 06:22:20;;;;;;;8.50;7.27;;;;;;;20.36;62.21;101553.81;4933346;29;20215;-78
2021/08/15 06:24:46;;;;;;;11.10;6.87;;;;;;;20.06;63.74;101552.66;4932982;29;20222;-77
2021/08/15 06:27:12;;;;;;;11.63;7.47;;;;;;;20.05;63.66;101564.59;4932737;29;20610;-78
2021/08/15 06:29:39;;;;;;;11.03;8.00;;;;;;;20.08;64.12;101564.09;4937162;29;20318;-78
2021/08/15 06:32:06;;;;;;;8.80;7.67;;;;;;;20.02;64.06;101554.28;4934191;29;20236;-78
2021/08/15 06:34:32;;;;;;;10.23;7.30;;;;;;;20.27;64.24;101556.22;4936685;29;20234;-78
2021/08/15 06:37:00;;;;;;;9.07;7.50;;;;;;;20.18;64.46;101550.50;4934174;29;20227;-78
2021/08/15 06:39:27;;;;;;;9.13;7.27;;;;;;;19.90;65.28;101549.09;4936441;29;20223;-78
2021/08/15 06:41:53;;;;;;;8.77;7.20;;;;;;;19.89;65.51;101547.47;4935422;29;20214;-78
2021/08/15 06:44:20;;;;;;;9.33;7.77;;;;;;;20.12;64.97;101548.06;4935562;29;20277;-78
2021/08/15 06:46:46;;;;;;;13.73;7.67;;;;;;;20.44;63.68;101550.56;4936846;28;20817;-78
2021/08/15 06:49:13;;;;;;;11.13;8.03;;;;;;;20.46;64.10;101553.84;4936446;29;20240;-78
2021/08/15 06:51:39;;;;;;;13.10;7.87;;;;;;;20.42;64.11;101547.31;4914957;29;20571;-78
2021/08/15 06:54:07;;;;;;;10.10;7.70;;;;;;;20.50;64.25;101544.06;4935636;29;20211;-78
2021/08/15 06:56:33;;;;;;;12.77;8.40;;;;;;;20.59;63.74;101541.63;4931944;29;20619;-78
2021/08/15 06:59:00;;;;;;;9.20;7.30;;;;;;;20.93;62.87;101547.25;4938808;29;20252;-78
2021/08/15 07:01:26;;;;;;;13.53;8.07;;;;;;;21.02;62.57;101549.13;4935171;29;20222;-78
2021/08/15 07:03:53;;;;;;;12.47;7.80;;;;;;;21.17;62.19;101549.09;4936854;29;20312;-78
2021/08/15 07:06:19;;;;;;;13.63;7.80;;;;;;;21.11;63.01;101547.50;4936243;29;20268;-78
2021/08/15 07:08:45;;;;;;;9.17;7.07;;;;;;;21.21;62.22;101543.91;4936992;29;20285;-79
2021/08/15 07:11:13;;;;;;;10.57;8.27;;;;;;;21.33;61.20;101540.91;4938617;28;20245;-78
2021/08/15 07:13:40;;;;;;;11.87;7.93;;;;;;;21.45;61.50;101539.50;4939833;29;21910;-79
2021/08/15 07:16:07;;;;;;;12.57;8.20;;;;;;;21.61;61.06;101543.00;4935096;29;20286;-79
2021/08/15 07:18:33;;;;;;;9.77;7.53;;;;;;;21.19;62.52;101539.84;4936131;29;20226;-79
2021/08/15 07:21:02;;;;;;;11.13;8.03;;;;;;;21.29;62.54;101539.84;4936574;29;20214;-79
2021/08/15 07:23:29;;;;;;;12.50;8.60;;;;;;;21.56;61.38;101539.47;4933131;28;20219;-79
2021/08/15 07:25:55;;;;;;;14.70;8.50;;;;;;;21.21;62.85;101530.31;4934453;29;20551;-79
2021/08/15 07:28:23;;;;;;;11.87;8.33;;;;;;;21.28;62.98;101539.03;4935076;29;20290;-79
2021/08/15 07:30:50;;;;;;;13.63;8.00;;;;;;;21.38;62.84;101533.56;4933460;29;20216;-78
2021/08/15 07:33:17;;;;;;;12.13;8.00;;;;;;;21.27;62.92;101534.69;4931754;29;20240;-79
2021/08/15 07:35:43;;;;;;;10.33;7.73;;;;;;;20.89;64.06;101533.41;4930378;29;20218;-78
2021/08/15 07:38:10;;;;;;;10.90;8.00;;;;;;;21.57;62.01;101530.22;4927620;29;20246;-78
2021/08/15 07:40:36;;;;;;;12.63;7.93;;;;;;;21.80;60.98;101528.72;4929120;29;20553;-79
2021/08/15 07:43:03;;;;;;;11.73;7.87;;;;;;;21.68;61.74;101529.88;4932751;29;20258;-78
2021/08/15 07:45:32;;;;;;;11.37;7.53;;;;;;;22.16;60.08;101523.91;4935907;29;20366;-79
2021/08/15 07:47:58;;;;;;;14.30;8.67;;;;;;;21.88;61.08;101530.88;4931830;29;20303;-78
2021/08/15 07:50:26;;;;;;;15.33;7.60;;;;;;;22.14;60.05;101520.66;4930538;29;20706;-79
2021/08/15 07:52:52;;;;;;;11.67;8.53;;;;;;;22.19;59.77;101524.13;4933646;29;20587;-79
2021/08/15 07:55:19;;;;;;;10.10;7.30;;;;;;;22.20;60.31;101524.94;4934314;29;21552;-79
2021/08/15 07:57:45;;;;;;;11.97;7.50;;;;;;;22.53;59.20;101523.31;4937258;29;20238;-78
2021/08/15 08:00:12;;;;;;;11.70;8.90;;;;;;;21.92;61.27;101530.00;4936131;29;20231;-79
2021/08/15 08:02:41;;;;;;;11.00;7.53;;;;;;;22.64;59.56;101526.78;4938873;29;20226;-79
2021/08/15 08:05:08;;;;;;;13.20;8.23;;;;;;;22.41;60.13;101522.88;4935325;29;20598;-78
2021/08/15 08:07:35;;;;;;;9.87;7.63;;;;;;;22.51;60.12;101525.53;4935453;29;20285;-78
2021/08/15 08:10:01;;;;;;;12.13;8.13;;;;;;;22.54;59.55;101527.66;4937371;29;20225;-80
2021/08/15 08:12:27;;;;;;;14.47;8.47;;;;;;;22.64;59.54;101518.59;4934245;29;20251;-78
2021/08/15 08:14:54;;;;;;;11.17;8.13;;;;;;;22.82;59.05;101515.94;4935400;29;20211;-78
2021/08/15 08:17:20;;;;;;;11.80;7.97;;;;;;;22.72;59.75;101524.22;4938264;29;20690;-78
2021/08/15 08:19:48;;;;;;;11.33;8.23;;;;;;;22.94;58.30;101517.50;4933783;29;20228;-78
2021/08/15 08:22:15;;;;;;;12.20;8.37;;;;;;;22.69;59.80;101516.63;4930976;29;20220;-78
2021/08/15 08:24:42;;;;;;;12.30;9.10;;;;;;;21.89;61.90;101514.25;4929958;29;20246;-78
2021/08/15 08:27:09;;;;;;;12.17;8.73;;;;;;;22.22;60.63;101511.88;4931679;29;20218;-78
2021/08/15 08:29:35;;;;;;;12.50;7.50;;;;;;;23.03;58.44;101508.41;4930361;29;20215;-78
2021/08/15 08:32:01;;;;;;;13.20;8.30;;;;;;;23.06;58.17;101505.09;4933918;29;20237;-78
2021/08/15 08:34:28;;;;;;;10.40;8.60;;;;;;;22.88;58.35;101509.38;4936727;28;20608;-79
2021/08/15 08:36:56;;;;;;;10.47;7.53;;;;;;;22.64;59.71;101513.16;4939286;29;20222;-79
2021/08/15 08:39:22;;;;;;;12.73;8.60;;;;;;;23.30;58.20;101513.25;4933428;29;20276;-79
2021/08/15 08:41:48;;;;;;;13.90;8.87;;;;;;;23.04;58.83;101503.75;4934870;29;20343;-78
2021/08/15 08:44:17;;;;;;;12.37;8.77;;;;;;;23.14;57.92;101504.47;4930219;29;20356;-78
2021/08/15 08:46:44;;;;;;;11.73;9.23;;;;;;;23.38;57.79;101501.72;4928527;29;20238;-78
2021/08/15 08:49:17;;;;;;;14.27;10.00;;;;;;;23.80;56.58;101493.78;4932539;29;20469;-78
2021/08/15 08:51:46;;;;;;;13.73;8.80;;;;;;;24.35;54.36;101495.66;4931358;28;20402;-78
2021/08/15 08:54:14;;;;;;;12.23;9.27;;;;;;;23.48;56.99;101500.75;4931926;29;20563;-78
2021/08/15 08:56:41;;;;;;;14.23;9.07;;;;;;;23.95;54.63;101502.56;4932853;29;20216;-78
2021/08/15 08:59:07;;;;;;;13.97;8.50;;;;;;;24.67;53.85;101488.53;4930322;29;20962;-79
2021/08/15 09:01:34;;;;;;;12.97;8.27;;;;;;;24.05;54.75;101485.22;4932212;29;20299;-78
2021/08/15 09:04:00;;;;;;;12.43;8.40;;;;;;;23.24;57.36;101492.59;4932371;29;20635;-78
2021/08/15 09:06:28;;;;;;;13.40;7.87;;;;;;;23.90;55.81;101486.25;4935186;29;20220;-79
2021/08/15 09:08:54;;;;;;;11.97;8.50;;;;;;;23.82;55.60;101480.66;4935542;29;20665;-79
2021/08/15 09:11:23;;;;;;;13.03;9.17;;;;;;;24.20;54.12;101484.94;4935570;29;20218;-79
2021/08/15 09:14:01;;;;;;;11.53;9.17;;;;;;;24.27;54.35;101487.31;4936342;29;20232;-79
2021/08/15 09:17:03;;;;;;;15.80;9.53;;;;;;;23.50;57.73;101482.16;4937720;28;20205;-78
2021/08/15 09:19:33;;;;;;;14.07;8.30;;;;;;;23.95;57.50;101474.44;4931524;29;20270;-78
2021/08/15 09:22:12;;;;;;;15.63;9.17;;;;;;;24.64;54.54;101479.00;4935840;28;20542;-78
2021/08/15 09:24:55;;;;;;;12.63;8.67;;;;;;;24.76;51.55;101483.16;4939784;29;20291;-78
2021/08/15 09:27:25;;;;;;;12.90;9.23;;;;;;;23.78;55.36;101473.06;4930819;29;20216;-79
2021/08/15 09:30:22;;;;;;;13.70;8.43;;;;;;;24.05;55.07;101474.28;4932360;28;20214;-79
2021/08/15 09:32:55;;;;;;;10.57;8.43;;;;;;;24.61;52.38;101478.78;4935119;29;20238;-78
2021/08/15 09:35:26;;;;;;;14.50;8.87;;;;;;;24.35;53.49;101468.34;4936404;29;20240;-79
2021/08/15 09:38:07;;;;;;;10.90;7.97;;;;;;;24.18;54.06;101469.97;4933439;29;20256;-78
2021/08/15 09:40:36;;;;;;;12.47;8.33;;;;;;;24.07;55.26;101459.22;4935480;29;20228;-79
2021/08/15 09:43:05;;;;;;;12.57;8.30;;;;;;;25.24;51.71;101459.78;4935376;29;20289;-79
2021/08/15 09:45:34;;;;;;;14.17;8.10;;;;;;;25.02;51.83;101461.63;4933935;29;20233;-78
2021/08/15 09:48:25;;;;;;;11.20;8.23;;;;;;;24.73;51.18;101449.06;4931678;28;20577;-78
2021/08/15 09:51:16;;;;;;;10.13;7.43;;;;;;;24.57;51.34;101450.47;4935305;29;20228;-79
2021/08/15 09:53:45;;;;;;;12.00;8.73;;;;;;;24.82;52.43;101460.91;4934443;29;20245;-78
2021/08/15 09:56:12;;;;;;;11.97;8.77;;;;;;;24.59;52.78;101456.44;4933814;29;20275;-77
2021/08/15 09:58:39;;;;;;;11.90;7.93;;;;;;;24.77;52.49;101449.25;4934162;28;20245;-78
2021/08/15 10:01:07;;;;;;;11.13;7.73;;;;;;;24.68;51.65;101445.63;4936769;29;20263;-79
2021/08/15 10:03:35;;;;;;;11.20;8.33;;;;;;;24.93;51.05;101443.19;4930756;29;20217;-78
2021/08/15 10:06:05;;;;;;;8.23;6.80;;;;;;;24.78;51.86;101438.03;4931505;28;20525;-78
2021/08/15 10:08:34;;;;;;;10.53;7.00;;;;;;;24.83;51.82;101437.94;4931971;29;20228;-77
2021/08/15 10:11:00;;;;;;;10.20;6.43;;;;;;;25.00;50.75;101436.50;4929883;28;20217;-77
2021/08/15 10:13:26;;;;;;;9.87;6.37;;;;;;;25.83;49.36;101434.41;4930337;29;21168;-77
2021/08/15 10:16:00;;;;;;;9.97;7.23;;;;;;;25.60;49.47;101426.16;4930850;29;20225;-78
2021/08/15 10:18:28;;;;;;;11.43;7.77;;;;;;;24.64;52.50;101434.47;4928034;29;21024;-77
2021/08/15 10:21:12;;;;;;;13.37;7.90;;;;;;;25.30;51.35;101422.22;4932974;29;20629;-78
2021/08/15 10:23:42;;;;;;;10.80;7.37;;;;;;;25.79;49.34;101424.09;4929668;29;20229;-77
2021/08/15 10:26:45;;;;;;;12.80;7.73;;;;;;;24.91;51.72;101406.34;4929242;29;20241;-77
2021/08/15 10:29:31;;;;;;;10.83;7.37;;;;;;;25.68;50.46;101419.94;4934216;29;20217;-78
2021/08/15 10:32:09;;;;;;;9.77;6.80;;;;;;;26.36;48.08;101407.84;4932765;29;20241;-78
2021/08/15 10:35:17;;;;;;;9.13;6.77;;;;;;;25.62;49.08;101418.44;4930902;29;20276;-77
2021/08/15 10:37:45;;;;;;;11.50;6.73;;;;;;;25.24;49.25;101421.50;4888553;29;20341;-78
2021/08/15 10:40:48;;;;;;;10.00;6.57;;;;;;;25.27;50.52;101406.38;4889842;29;20245;-77
2021/08/15 10:43:16;;;;;;;9.00;6.37;;;;;;;25.61;49.19;101408.63;4920486;29;20261;-78
2021/08/15 10:45:44;;;;;;;11.97;6.17;;;;;;;25.74;48.93;101396.81;4931640;29;20222;-78
2021/08/15 10:48:23;;;;;;;10.80;6.80;;;;;;;26.25;47.54;101401.00;4931857;29;20222;-78
2021/08/15 10:50:52;;;;;;;11.43;6.47;;;;;;;25.89;47.18;101397.56;4930213;29;20236;-78
2021/08/15 10:53:45;;;;;;;10.70;6.70;;;;;;;25.85;46.92;101399.31;4932038;29;21289;-78
2021/08/15 10:56:13;;;;;;;11.33;6.33;;;;;;;25.47;47.40;101403.19;4911776;29;20221;-78
2021/08/15 10:58:41;;;;;;;9.10;5.83;;;;;;;25.74;46.97;101393.28;4924378;29;20252;-78
2021/08/15 11:01:09;;;;;;;9.77;5.87;;;;;;;25.82;46.47;101395.28;4932440;29;20226;-78
2021/08/15 11:03:54;;;;;;;9.80;5.90;;;;;;;26.30;46.12;101378.97;4929879;29;20220;-78
2021/08/15 11:06:45;;;;;;;9.03;5.83;;;;;;;26.34;46.02;101385.41;4935967;29;20222;-78
2021/08/15 11:09:11;;;;;;;8.90;5.40;;;;;;;25.94;47.18;101389.25;4937269;29;20233;-78
2021/08/15 11:12:13;;;;;;;9.90;6.00;;;;;;;26.17;44.91;101379.88;4933140;29;20210;-78
2021/08/15 11:14:59;;;;;;;8.80;5.93;;;;;;;26.50;44.73;101372.13;4936568;29;20265;-78
2021/08/15 11:17:27;;;;;;;10.30;5.90;;;;;;;26.57;45.70;101377.16;4935856;29;20273;-78
2021/08/15 11:19:54;;;;;;;8.67;5.57;;;;;;;26.73;45.20;101370.09;4934210;29;20222;-79
2021/08/15 11:22:28;;;;;;;10.50;5.90;;;;;;;25.97;46.32;101367.50;4938922;29;20241;-78
2021/08/15 11:24:58;;;;;;;9.67;6.13;;;;;;;25.56;47.17;101362.22;4934221;29;20210;-79